createdAt,value
2024-02-04T00:00:34.757Z,1.90
2024-02-04T00:03:26.577Z,1.50
2024-02-04T00:05:58.667Z,1.90
2024-02-04T00:08:30.396Z,2.00
2024-02-04T00:11:02.041Z,1.80
2024-02-04T00:13:33.711Z,1.90
2024-02-04T00:16:05.837Z,1.90
2024-02-04T00:18:37.708Z,1.80
2024-02-04T00:21:09.751Z,2.00
2024-02-04T00:26:11.573Z,1.80
2024-02-04T00:28:44.365Z,1.70
2024-02-04T00:31:16.195Z,2.10
2024-02-04T00:33:48.090Z,2.00
2024-02-04T00:36:20.576Z,2.20
2024-02-04T00:38:52.577Z,1.80
2024-02-04T00:42:29.614Z,2.00
2024-02-04T00:46:30.007Z,1.90
2024-02-04T00:50:17.720Z,1.80
2024-02-04T00:53:50.830Z,1.80
2024-02-04T00:57:14.782Z,1.70
2024-02-04T01:00:43.694Z,1.70
2024-02-04T01:03:56.967Z,1.50
2024-02-04T01:07:28.036Z,2.10
2024-02-04T01:10:26.195Z,1.70
2024-02-04T01:17:46.405Z,1.60
2024-02-04T01:21:01.949Z,1.60
2024-02-04T01:34:08.792Z,1.70
2024-02-04T01:41:21.831Z,1.70
2024-02-04T01:47:25.253Z,1.40
2024-02-04T01:50:37.565Z,1.30
2024-02-04T02:01:33.406Z,1.50
2024-02-04T02:04:06.744Z,1.40
2024-02-04T02:06:43.275Z,1.80
2024-02-04T02:09:16.136Z,1.40
2024-02-04T02:11:50.148Z,1.50
2024-02-04T02:14:27.163Z,1.50
2024-02-04T02:17:05.197Z,1.40
2024-02-04T02:19:52.656Z,1.50
2024-02-04T02:22:40.197Z,1.60
2024-02-04T02:25:12.634Z,1.40
2024-02-04T02:27:51.769Z,1.40
2024-02-04T02:30:23.707Z,1.10
2024-02-04T02:32:55.890Z,1.00
2024-02-04T02:35:28.184Z,1.30
2024-02-04T02:38:09.587Z,1.20
2024-02-04T02:40:47.552Z,1.20
2024-02-04T02:43:19.983Z,1.10
2024-02-04T02:45:52.498Z,1.30
2024-02-04T02:48:26.254Z,1.10
2024-02-04T02:50:59.430Z,1.30
2024-02-04T02:53:31.282Z,1.00
2024-02-04T02:56:03.218Z,1.10
2024-02-04T02:58:34.899Z,1.30
2024-02-04T03:01:06.870Z,1.40
2024-02-04T03:06:09.301Z,1.20
2024-02-04T03:08:41.009Z,1.20
2024-02-04T03:11:13.124Z,1.40
2024-02-04T03:13:44.784Z,1.40
2024-02-04T03:16:16.964Z,1.40
2024-02-04T03:18:49.728Z,1.50
2024-02-04T03:21:21.699Z,1.50
2024-02-04T03:26:23.576Z,1.10
2024-02-04T03:28:55.352Z,1.30
2024-02-04T03:31:27.250Z,1.40
2024-02-04T03:36:29.628Z,1.30
2024-02-04T03:39:01.633Z,1.10
2024-02-04T03:41:33.319Z,1.00
2024-02-04T03:44:05.155Z,1.10
2024-02-04T03:46:37.651Z,1.10
2024-02-04T03:49:09.805Z,1.10
2024-02-04T03:51:41.595Z,0.90
2024-02-04T03:54:13.333Z,0.80
2024-02-04T03:59:16.047Z,1.00
2024-02-04T04:04:22.747Z,0.90
2024-02-04T04:09:24.803Z,0.60
2024-02-04T04:11:56.452Z,0.50
2024-02-04T04:14:28.163Z,0.70
2024-02-04T04:16:59.817Z,0.80
2024-02-04T04:19:34.373Z,0.50
2024-02-04T04:22:06.896Z,0.60
2024-02-04T04:24:40.162Z,0.40
2024-02-04T04:27:12.566Z,0.50
2024-02-04T04:29:44.497Z,0.60
2024-02-04T04:32:16.364Z,0.60
2024-02-04T04:34:48.023Z,0.40
2024-02-04T04:37:19.745Z,0.50
2024-02-04T04:39:51.483Z,0.50
2024-02-04T04:42:23.267Z,0.40
2024-02-04T04:44:54.984Z,0.50
2024-02-04T04:47:26.676Z,0.80
2024-02-04T04:49:58.328Z,0.60
2024-02-04T04:52:30.051Z,0.60
2024-02-04T04:55:01.882Z,0.80
2024-02-04T04:57:33.612Z,0.40
2024-02-04T05:00:08.026Z,0.60
2024-02-04T05:02:39.836Z,0.60
2024-02-04T05:05:12.439Z,0.60
2024-02-04T05:07:44.468Z,0.50
2024-02-04T05:10:16.455Z,0.60
2024-02-04T05:15:18.660Z,0.60
2024-02-04T05:20:21.158Z,0.60
2024-02-04T05:22:52.856Z,0.40
2024-02-04T05:25:24.566Z,0.50
2024-02-04T05:27:56.213Z,0.70
2024-02-04T05:32:58.625Z,0.80
2024-02-04T05:35:30.301Z,0.80
2024-02-04T05:38:02.040Z,0.50
2024-02-04T05:40:33.691Z,0.40
2024-02-04T05:43:11.612Z,0.40
2024-02-04T05:45:44.610Z,0.40
2024-02-04T05:48:16.625Z,0.70
2024-02-04T05:53:18.701Z,0.80
2024-02-04T05:55:50.637Z,0.50
2024-02-04T05:58:22.256Z,0.40
2024-02-04T06:00:53.982Z,0.80
2024-02-04T06:03:26.874Z,0.50
2024-02-04T06:05:59.738Z,0.40
2024-02-04T06:08:31.517Z,0.70
2024-02-04T06:11:03.440Z,0.80
2024-02-04T06:16:05.553Z,1.20
2024-02-04T06:18:39.112Z,5.60
2024-02-04T06:21:10.973Z,2.20
2024-02-04T06:23:43.083Z,1.70
2024-02-04T06:26:14.829Z,1.80
2024-02-04T06:28:47.997Z,0.90
2024-02-04T06:31:19.745Z,1.00
2024-02-04T06:33:52.723Z,1.20
2024-02-04T06:36:24.762Z,1.20
2024-02-04T06:38:56.762Z,1.50
2024-02-04T06:41:28.394Z,1.60
2024-02-04T06:44:00.044Z,1.50
2024-02-04T06:46:31.841Z,1.70
2024-02-04T06:49:03.648Z,1.60
2024-02-04T06:51:35.415Z,1.60
2024-02-04T06:54:07.307Z,1.60
2024-02-04T06:56:39.129Z,1.70
2024-02-04T06:59:10.941Z,1.70
2024-02-04T07:01:43.138Z,2.50
2024-02-04T07:04:15.075Z,1.60
2024-02-04T07:09:17.102Z,1.80
2024-02-04T07:11:48.899Z,2.60
2024-02-04T07:14:20.556Z,1.40
2024-02-04T07:16:52.309Z,1.60
2024-02-04T07:19:24.548Z,2.10
2024-02-04T07:21:56.613Z,1.40
2024-02-04T07:24:28.632Z,1.60
2024-02-04T07:29:30.763Z,1.40
2024-02-04T07:32:02.404Z,1.40
2024-02-04T07:34:35.181Z,1.50
2024-02-04T07:37:07.271Z,1.70
2024-02-04T07:42:09.611Z,1.70
2024-02-04T07:44:41.282Z,1.40
2024-02-04T07:47:13.060Z,1.70
2024-02-04T07:49:44.859Z,1.40
2024-02-04T07:52:16.719Z,1.50
2024-02-04T07:54:48.605Z,1.70
2024-02-04T07:57:20.654Z,1.90
2024-02-04T08:02:22.545Z,1.70
2024-02-04T08:04:55.156Z,1.60
2024-02-04T08:07:30.416Z,1.80
2024-02-04T08:10:06.089Z,1.70
2024-02-04T08:12:42.137Z,2.00
2024-02-04T08:15:16.071Z,1.80
2024-02-04T08:17:51.836Z,1.70
2024-02-04T08:20:24.896Z,1.70
2024-02-04T08:22:58.585Z,1.80
2024-02-04T08:25:33.149Z,1.90
2024-02-04T08:28:08.276Z,2.00
2024-02-04T08:30:43.312Z,2.30
2024-02-04T08:33:15.676Z,1.60
2024-02-04T08:38:17.632Z,1.20
2024-02-04T08:40:49.387Z,1.50
2024-02-04T08:43:21.341Z,1.60
2024-02-04T08:45:53.164Z,1.40
2024-02-04T08:48:24.989Z,1.40
2024-02-04T08:50:59.073Z,1.30
2024-02-04T08:53:30.969Z,1.60
2024-02-04T08:56:02.691Z,1.60
2024-02-04T08:58:34.533Z,1.20
2024-02-04T09:01:06.825Z,1.20
2024-02-04T09:03:39.092Z,1.20
2024-02-04T09:06:10.935Z,0.90
2024-02-04T09:08:42.834Z,1.10
2024-02-04T09:11:19.868Z,1.10
2024-02-04T09:13:53.316Z,1.00
2024-02-04T09:16:25.228Z,1.10
2024-02-04T09:21:27.992Z,0.60
2024-02-04T09:23:59.735Z,0.80
2024-02-04T09:26:33.722Z,0.60
2024-02-04T09:29:06.026Z,0.60
2024-02-04T09:31:37.794Z,0.50
2024-02-04T09:34:09.839Z,0.50
2024-02-04T09:36:41.822Z,0.50
2024-02-04T09:41:45.431Z,0.60
2024-02-04T09:44:19.404Z,0.70
2024-02-04T09:46:51.771Z,0.50
2024-02-04T09:49:24.594Z,0.50
2024-02-04T09:51:57.065Z,0.60
2024-02-04T09:54:29.869Z,0.50
2024-02-04T09:57:02.431Z,0.60
2024-02-04T09:59:34.385Z,0.50
2024-02-04T10:04:38.385Z,0.50
2024-02-04T10:07:11.017Z,0.40
2024-02-04T10:09:42.911Z,0.30
2024-02-04T10:12:14.990Z,0.30
2024-02-04T10:14:46.772Z,0.50
2024-02-04T10:17:21.352Z,0.40
2024-02-04T10:19:53.294Z,0.60
2024-02-04T10:22:28.286Z,0.50
2024-02-04T10:25:13.146Z,0.50
2024-02-04T10:27:47.848Z,0.60
2024-02-04T10:30:22.755Z,0.50
2024-02-04T10:32:56.125Z,0.40
2024-02-04T10:35:28.025Z,0.50
2024-02-04T10:37:59.972Z,0.60
2024-02-04T10:40:31.758Z,0.50
2024-02-04T10:43:08.662Z,0.50
2024-02-04T10:45:44.690Z,1.00
2024-02-04T10:48:21.708Z,0.70
2024-02-04T10:50:58.354Z,0.50
2024-02-04T10:53:30.511Z,0.70
2024-02-04T10:58:39.442Z,0.60
2024-02-04T11:01:12.126Z,0.60
2024-02-04T11:03:47.353Z,0.90
2024-02-04T11:06:20.912Z,0.60
2024-02-04T11:08:56.467Z,0.50
2024-02-04T11:11:29.057Z,0.60
2024-02-04T11:14:06.848Z,0.60
2024-02-04T11:16:57.588Z,0.70
2024-02-04T11:19:43.457Z,0.80
2024-02-04T11:22:51.023Z,0.60
2024-02-04T11:25:41.712Z,0.90
2024-02-04T11:30:46.507Z,0.70
2024-02-04T11:33:23.275Z,0.80
2024-02-04T11:36:08.393Z,0.60
2024-02-04T11:38:40.779Z,0.70
2024-02-04T11:41:12.593Z,0.40
2024-02-04T11:43:47.818Z,0.50
2024-02-04T11:46:21.367Z,0.70
2024-02-04T11:48:57.078Z,0.80
2024-02-04T11:51:29.279Z,0.40
2024-02-04T11:54:03.432Z,0.30
2024-02-04T11:56:37.119Z,0.60
2024-02-04T11:59:13.758Z,0.70
2024-02-04T12:01:48.230Z,0.60
2024-02-04T12:04:21.217Z,0.70
2024-02-04T12:06:54.720Z,0.70
2024-02-04T12:09:31.255Z,0.70
2024-02-04T12:12:07.321Z,0.60
2024-02-04T12:14:41.455Z,0.80
2024-02-04T12:17:14.669Z,0.80
2024-02-04T12:19:48.788Z,0.80
2024-02-04T12:22:26.426Z,0.70
2024-02-04T12:24:58.303Z,0.90
2024-02-04T12:27:30.067Z,1.10
2024-02-04T12:30:06.595Z,0.70
2024-02-04T12:32:39.072Z,0.70
2024-02-04T12:35:17.297Z,0.60
2024-02-04T12:37:58.522Z,0.70
2024-02-04T12:40:32.302Z,0.80
2024-02-04T12:43:07.096Z,0.90
2024-02-04T12:45:39.319Z,0.80
2024-02-04T12:48:11.569Z,0.70
2024-02-04T12:50:43.464Z,0.60
2024-02-04T12:53:16.638Z,1.00
2024-02-04T12:55:48.841Z,1.00
2024-02-04T12:58:20.833Z,0.70
2024-02-04T13:01:06.584Z,0.80
2024-02-04T13:03:39.228Z,0.70
2024-02-04T13:06:11.464Z,0.50
2024-02-04T13:08:43.457Z,0.80
2024-02-04T13:11:23.311Z,0.60
2024-02-04T13:13:55.695Z,0.50
2024-02-04T13:16:28.250Z,0.70
2024-02-04T13:19:09.845Z,0.60
2024-02-04T13:22:06.507Z,0.40
2024-02-04T13:27:09.933Z,0.80
2024-02-04T13:29:45.069Z,0.50
2024-02-04T13:32:20.711Z,0.90
2024-02-04T13:34:59.896Z,0.40
2024-02-04T13:37:42.236Z,0.50
2024-02-04T13:40:15.836Z,0.60
2024-02-04T13:42:48.658Z,0.60
2024-02-04T13:45:32.591Z,0.50
2024-02-04T13:48:04.544Z,0.70
2024-02-04T13:50:38.528Z,0.40
2024-02-04T13:53:12.385Z,0.60
2024-02-04T13:55:44.875Z,0.60
2024-02-04T13:58:19.907Z,0.70
2024-02-04T14:00:57.020Z,0.70
2024-02-04T14:03:28.938Z,0.90
2024-02-04T14:08:30.848Z,0.70
2024-02-04T14:11:24.002Z,0.50
2024-02-04T14:13:55.819Z,0.50
2024-02-04T14:16:27.622Z,0.70
2024-02-04T14:19:01.347Z,0.40
2024-02-04T14:21:33.520Z,0.80
2024-02-04T14:24:07.800Z,0.80
2024-02-04T14:26:39.893Z,0.80
2024-02-04T14:29:11.689Z,0.70
2024-02-04T14:31:44.530Z,0.70
2024-02-04T14:34:16.324Z,0.70
2024-02-04T14:36:50.309Z,0.40
2024-02-04T14:39:22.131Z,0.50
2024-02-04T14:41:55.138Z,0.30
2024-02-04T14:44:27.308Z,0.70
2024-02-04T14:46:58.993Z,0.90
2024-02-04T14:49:30.774Z,0.60
2024-02-04T14:52:02.742Z,0.90
2024-02-04T14:57:04.972Z,1.00
2024-02-04T15:02:13.051Z,0.70
2024-02-04T15:04:45.319Z,0.60
2024-02-04T15:07:17.118Z,0.70
2024-02-04T15:09:51.498Z,0.90
2024-02-04T15:12:24.209Z,0.60
2024-02-04T15:14:58.717Z,0.40
2024-02-04T15:17:31.439Z,0.50
2024-02-04T15:20:04.824Z,0.70
2024-02-04T15:22:37.563Z,0.60
2024-02-04T15:25:12.945Z,0.60
2024-02-04T15:27:45.871Z,0.70
2024-02-04T15:30:20.039Z,0.50
2024-02-04T15:32:53.390Z,0.90
2024-02-04T15:35:26.857Z,0.60
2024-02-04T15:37:59.680Z,0.70
2024-02-04T15:40:32.325Z,0.80
2024-02-04T15:43:04.222Z,0.50
2024-02-04T15:48:13.263Z,0.80
2024-02-04T15:50:46.036Z,0.70
2024-02-04T15:53:19.665Z,0.70
2024-02-04T15:55:52.374Z,0.60
2024-02-04T15:58:27.872Z,0.80
2024-02-04T16:01:04.240Z,0.90
2024-02-04T16:03:38.648Z,0.90
2024-02-04T16:06:12.320Z,0.90
2024-02-04T16:08:45.757Z,0.70
2024-02-04T16:11:21.092Z,0.90
2024-02-04T16:13:55.198Z,0.90
2024-02-04T16:16:38.700Z,1.10
2024-02-04T16:19:11.411Z,1.10
2024-02-04T16:21:44.782Z,1.00
2024-02-04T16:24:16.440Z,0.90
2024-02-04T16:26:48.123Z,1.00
2024-02-04T16:29:19.854Z,1.00
2024-02-04T16:31:54.393Z,1.00
2024-02-04T16:34:28.277Z,1.00
2024-02-04T16:37:02.933Z,1.00
2024-02-04T16:39:35.242Z,0.80
2024-02-04T16:42:09.874Z,1.00
2024-02-04T16:44:41.740Z,1.10
2024-02-04T16:47:13.629Z,0.80
2024-02-04T16:52:16.151Z,1.20
2024-02-04T16:57:18.902Z,1.00
2024-02-04T16:59:51.011Z,1.30
2024-02-04T17:02:39.775Z,1.20
2024-02-04T17:05:13.894Z,1.20
2024-02-04T17:07:46.608Z,1.10
2024-02-04T17:10:19.581Z,1.20
2024-02-04T17:12:52.478Z,1.30
2024-02-04T17:15:25.601Z,1.30
2024-02-04T17:18:03.358Z,1.30
2024-02-04T17:20:44.720Z,1.00
2024-02-04T17:23:19.375Z,1.20
2024-02-04T17:26:00.319Z,1.10
2024-02-04T17:28:33.154Z,0.90
2024-02-04T17:31:06.212Z,1.10
2024-02-04T17:33:39.839Z,1.20
2024-02-04T17:36:12.787Z,1.20
2024-02-04T17:38:54.708Z,1.20
2024-02-04T17:41:29.232Z,0.70
2024-02-04T17:44:01.875Z,0.80
2024-02-04T17:46:35.034Z,0.70
2024-02-04T17:49:10.765Z,0.70
2024-02-04T17:51:47.309Z,1.00
2024-02-04T17:54:36.282Z,1.00
2024-02-04T17:57:10.366Z,0.90
2024-02-04T17:59:44.183Z,0.90
2024-02-04T18:02:22.314Z,0.60
2024-02-04T18:04:59.769Z,0.80
2024-02-04T18:07:32.678Z,0.60
2024-02-04T18:10:07.258Z,0.70
2024-02-04T18:12:41.064Z,0.80
2024-02-04T18:15:15.474Z,0.70
2024-02-04T18:17:49.518Z,0.80
2024-02-04T18:20:22.297Z,0.60
2024-02-04T18:22:54.756Z,0.70
2024-02-04T18:25:28.322Z,0.70
2024-02-04T18:28:05.219Z,0.70
2024-02-04T18:30:38.023Z,0.80
2024-02-04T18:33:11.040Z,1.00
2024-02-04T18:35:44.173Z,1.10
2024-02-04T18:38:16.891Z,1.00
2024-02-04T18:40:50.088Z,1.10
2024-02-04T18:43:23.914Z,0.90
2024-02-04T18:45:59.180Z,1.00
2024-02-04T18:48:32.424Z,0.90
2024-02-04T18:51:05.551Z,0.90
2024-02-04T18:53:38.688Z,0.90
2024-02-04T18:56:17.026Z,1.00
2024-02-04T19:01:31.165Z,0.70
2024-02-04T19:04:04.713Z,0.80
2024-02-04T19:06:37.504Z,0.70
2024-02-04T19:09:13.891Z,1.10
2024-02-04T19:11:47.527Z,0.80
2024-02-04T19:14:23.827Z,0.70
2024-02-04T19:16:56.908Z,0.90
2024-02-04T19:19:30.684Z,1.10
2024-02-04T19:22:03.593Z,0.90
2024-02-04T19:24:41.008Z,1.00
2024-02-04T19:27:15.026Z,1.10
2024-02-04T19:29:48.303Z,0.80
2024-02-04T19:32:20.973Z,0.90
2024-02-04T19:34:56.856Z,0.70
2024-02-04T19:37:29.711Z,0.80
2024-02-04T19:40:03.334Z,0.70
2024-02-04T19:42:36.756Z,1.00
2024-02-04T19:45:13.884Z,0.60
2024-02-04T19:47:47.320Z,0.80
2024-02-04T19:50:21.324Z,0.90
2024-02-04T19:52:54.103Z,0.80
2024-02-04T19:55:27.244Z,1.00
2024-02-04T19:58:03.181Z,1.20
2024-02-04T20:00:36.412Z,0.90
2024-02-04T20:03:18.567Z,1.00
2024-02-04T20:05:57.833Z,0.80
2024-02-04T20:08:44.548Z,1.10
2024-02-04T20:11:53.100Z,0.90
2024-02-04T20:14:26.618Z,1.00
2024-02-04T20:17:00.995Z,1.10
2024-02-04T20:19:36.734Z,0.90
2024-02-04T20:22:08.867Z,0.80
2024-02-04T20:28:05.354Z,1.00
2024-02-04T20:30:39.418Z,1.30
2024-02-04T20:33:14.246Z,1.30
2024-02-04T20:35:47.264Z,1.30
2024-02-04T20:38:20.885Z,0.90
2024-02-04T20:40:55.466Z,1.00
2024-02-04T20:43:29.087Z,1.10
2024-02-04T20:46:02.444Z,1.00
2024-02-04T20:48:35.425Z,1.00
2024-02-04T20:53:40.780Z,1.00
2024-02-04T20:56:17.268Z,0.90
2024-02-04T20:58:50.260Z,1.20
2024-02-04T21:01:25.263Z,0.80
2024-02-04T21:03:57.281Z,1.10
2024-02-04T21:09:05.873Z,0.90
2024-02-04T21:11:38.212Z,1.00
2024-02-04T21:14:10.460Z,1.10
2024-02-04T21:16:42.148Z,0.90
2024-02-04T21:19:14.243Z,1.10
2024-02-04T21:21:46.160Z,1.00
2024-02-04T21:24:19.782Z,0.80
2024-02-04T21:26:51.533Z,0.60
2024-02-04T21:29:24.623Z,0.80
2024-02-04T21:31:56.863Z,1.00
2024-02-04T21:37:00.664Z,0.80
2024-02-04T21:42:14.533Z,0.70
2024-02-04T21:44:49.075Z,0.70
2024-02-04T21:47:28.316Z,0.70
2024-02-04T21:50:01.705Z,0.40
2024-02-04T21:52:33.579Z,0.30
2024-02-04T21:55:05.734Z,0.50
2024-02-04T21:57:37.709Z,0.40
2024-02-04T22:02:41.169Z,0.40
2024-02-04T22:05:13.091Z,0.60
2024-02-04T22:10:15.735Z,0.10
2024-02-04T22:12:47.570Z,0.30
2024-02-04T22:17:49.916Z,0.30
2024-02-04T22:22:52.580Z,0.30
2024-02-04T22:28:00.172Z,0.30
2024-02-04T22:30:32.206Z,0.40
2024-02-04T22:33:04.074Z,0.70
2024-02-04T22:38:06.341Z,0.20
2024-02-04T22:40:38.409Z,0.20
2024-02-04T22:43:11.538Z,0.30
2024-02-04T22:45:43.335Z,0.50
2024-02-04T22:48:15.688Z,0.40
2024-02-04T22:50:47.872Z,0.30
2024-02-04T22:53:19.764Z,0.30
2024-02-04T22:58:22.083Z,0.30
2024-02-04T23:00:53.866Z,0.20
2024-02-04T23:03:25.636Z,0.20
2024-02-04T23:05:57.374Z,0.40
2024-02-04T23:08:29.143Z,0.30
2024-02-04T23:11:00.940Z,0.20
2024-02-04T23:13:33.076Z,0.10
2024-02-04T23:16:06.448Z,0.20
2024-02-04T23:18:38.551Z,0.20
2024-02-04T23:21:10.549Z,0.10
2024-02-04T23:23:42.617Z,0.10
2024-02-04T23:26:14.456Z,0.20
2024-02-04T23:31:17.572Z,0.30
2024-02-04T23:33:49.452Z,0.30
2024-02-04T23:36:21.398Z,0.40
2024-02-04T23:38:53.464Z,0.20
2024-02-04T23:41:26.508Z,0.00
2024-02-04T23:43:58.456Z,1.00
2024-02-04T23:49:01.019Z,0.20
2024-02-04T23:51:32.897Z,0.20
2024-02-04T23:54:04.640Z,0.10
2024-02-04T23:56:37.280Z,0.10
2024-02-04T23:59:09.102Z,0.30
